Time;durP1;ratioP1;P1;durP2;ratioP2;P2;SDS_P1;SDS_P2;PMS_P1;PMS_P2;Temp;Humidity;BMP_temperature;BMP_pressure;BME280_temperature;BME280_humidity;BME280_pressure;Samples;Min_cycle;Max_cycle;Signal;HPM_P1;HPM_P2
2022/03/08 00:01:00;;;;;;;;;;;-1.30;82.30;;;;;;5063210;28;19951;-72
2022/03/08 00:03:26;;;;;;;;;;;-1.40;82.20;;;;;;5046149;28;20018;-72
2022/03/08 00:05:52;;;;;;;;;;;-1.50;82.60;;;;;;5029497;28;20426;-72
2022/03/08 00:08:18;;;;;;;;;;;-1.50;82.60;;;;;;5063274;28;19923;-73
2022/03/08 00:10:43;;;;;;;;;;;-1.50;82.60;;;;;;5045144;28;19984;-73
2022/03/08 00:13:09;;;;;;;;;;;-1.60;82.60;;;;;;5062957;28;19963;-73
2022/03/08 00:15:35;;;;;;;;;;;-1.60;82.90;;;;;;5061690;28;19909;-72
2022/03/08 00:18:00;;;;;;;;;;;-1.60;82.90;;;;;;5012513;28;19915;-72
2022/03/08 00:20:26;;;;;;;;;;;-1.60;82.80;;;;;;5062846;28;19938;-72
2022/03/08 00:22:52;;;;;;;;;;;-1.60;82.90;;;;;;5062465;28;19942;-72
2022/03/08 00:25:17;;;;;;;;;;;-1.60;82.90;;;;;;5028596;28;19928;-71
2022/03/08 00:27:46;;;;;;;;;;;-1.70;83.20;;;;;;5045016;28;19909;-71
2022/03/08 00:30:14;;;;;;;;;;;-1.70;83.30;;;;;;5029120;28;19917;-70
2022/03/08 00:32:39;;;;;;;;;;;-1.70;83.50;;;;;;5044679;28;19970;-71
2022/03/08 00:35:05;;;;;;;;;;;-1.80;83.80;;;;;;5025075;28;19913;-70
2022/03/08 00:37:31;;;;;;;;;;;-1.70;83.60;;;;;;5042708;28;20011;-70
2022/03/08 00:39:57;;;;;;;;;;;-1.80;83.80;;;;;;5042566;28;19952;-70
2022/03/08 00:42:23;;;;;;;;;;;-1.90;83.90;;;;;;5042494;28;19917;-71
2022/03/08 00:44:48;;;;;;;;;;;-1.90;84.70;;;;;;5025758;28;19976;-71
2022/03/08 00:47:14;;;;;;;;;;;-1.90;84.30;;;;;;5044523;28;19909;-70
2022/03/08 00:49:40;;;;;;;;;;;-2.00;84.60;;;;;;5044748;28;19909;-70
2022/03/08 00:52:06;;;;;;;;;;;-2.00;84.50;;;;;;5027905;28;19948;-70
2022/03/08 00:54:32;;;;;;;;;;;-2.00;84.70;;;;;;5044887;28;20147;-70
2022/03/08 00:56:57;;;;;;;;;;;-2.00;84.60;;;;;;5028456;28;19917;-70
2022/03/08 00:59:24;;;;;;;;;;;-2.00;84.70;;;;;;5062833;28;19909;-70
2022/03/08 01:01:49;;;;;;;;;;;-2.10;84.70;;;;;;5062000;28;19909;-70
2022/03/08 01:04:15;;;;;;;;;;;-2.10;85.10;;;;;;5062167;28;19916;-71
2022/03/08 01:06:41;;;;;;;;;;;-2.00;85.10;;;;;;5048508;28;20204;-71
2022/03/08 01:09:07;;;;;;;;;;;-2.10;85.00;;;;;;5048652;28;20457;-70
2022/03/08 01:11:34;;;;;;;;;;;-2.00;84.80;;;;;;5048408;28;19917;-70
2022/03/08 01:13:59;;;;;;;;;;;-2.00;84.90;;;;;;5032363;28;19919;-70
2022/03/08 01:16:25;;;;;;;;;;;-2.10;84.80;;;;;;5064930;28;20159;-70
2022/03/08 01:18:51;;;;;;;;;;;-2.10;85.00;;;;;;5048365;28;19909;-71
2022/03/08 01:21:16;;;;;;;;;;;-2.10;84.90;;;;;;5048174;28;19923;-70
2022/03/08 01:23:42;;;;;;;;;;;-2.10;85.10;;;;;;5048286;28;19934;-72
2022/03/08 01:26:08;;;;;;;;;;;-2.10;85.10;;;;;;5048578;28;19916;-72
2022/03/08 01:28:34;;;;;;;;;;;-2.10;85.30;;;;;;5031936;28;20226;-72
2022/03/08 01:31:00;;;;;;;;;;;-2.10;85.30;;;;;;5031543;28;19915;-72
2022/03/08 01:33:26;;;;;;;;;;;-2.20;85.50;;;;;;5048023;28;19920;-72
2022/03/08 01:35:51;;;;;;;;;;;-2.20;85.50;;;;;;5041226;28;19916;-69
2022/03/08 01:38:17;;;;;;;;;;;-2.20;85.80;;;;;;5011903;28;19992;-69
2022/03/08 01:40:43;;;;;;;;;;;-2.20;85.70;;;;;;5027984;28;19909;-69
2022/03/08 01:43:08;;;;;;;;;;;-2.20;85.70;;;;;;5028234;28;19909;-69
2022/03/08 01:45:34;;;;;;;;;;;-2.30;85.80;;;;;;5051917;28;19988;-69
2022/03/08 01:48:00;;;;;;;;;;;-2.30;86.60;;;;;;5047992;28;19908;-69
2022/03/08 01:50:26;;;;;;;;;;;-2.30;85.90;;;;;;5047984;28;19908;-70
2022/03/08 01:52:52;;;;;;;;;;;-2.20;86.50;;;;;;5047651;28;19913;-69
2022/03/08 01:55:17;;;;;;;;;;;-2.30;86.10;;;;;;5047893;28;19920;-69
2022/03/08 01:57:44;;;;;;;;;;;-2.40;86.10;;;;;;5031348;28;20212;-69
2022/03/08 02:00:11;;;;;;;;;;;-2.30;85.80;;;;;;5031188;28;19915;-69
2022/03/08 02:02:37;;;;;;;;;;;-2.30;85.80;;;;;;5047509;28;19976;-71
2022/03/08 02:05:03;;;;;;;;;;;-2.20;85.90;;;;;;5047768;28;19931;-71
2022/03/08 02:07:29;;;;;;;;;;;-2.20;85.50;;;;;;5030986;28;19985;-71
2022/03/08 02:09:54;;;;;;;;;;;-2.40;86.20;;;;;;5047689;28;19947;-70
2022/03/08 02:12:20;;;;;;;;;;;-2.20;86.80;;;;;;5047219;28;19913;-70
2022/03/08 02:14:46;;;;;;;;;;;-2.30;86.30;;;;;;5065047;28;20204;-70
2022/03/08 02:17:11;;;;;;;;;;;-2.30;86.30;;;;;;5045712;28;19916;-72
2022/03/08 02:19:37;;;;;;;;;;;-2.40;87.10;;;;;;5065087;28;19917;-70
2022/03/08 02:22:03;;;;;;;;;;;-2.40;87.90;;;;;;5046936;28;19924;-70
2022/03/08 02:24:28;;;;;;;;;;;-2.40;88.10;;;;;;5047129;28;20127;-71
2022/03/08 02:26:54;;;;;;;;;;;-2.40;88.30;;;;;;5065007;28;19980;-70
2022/03/08 02:29:20;;;;;;;;;;;-2.30;87.40;;;;;;5064845;28;19955;-71
2022/03/08 02:31:47;;;;;;;;;;;-2.30;86.50;;;;;;5046670;28;19916;-70
2022/03/08 02:34:13;;;;;;;;;;;-2.30;86.40;;;;;;5064634;28;19952;-71
2022/03/08 02:36:41;;;;;;;;;;;-2.40;86.70;;;;;;5047289;28;20204;-71
2022/03/08 02:39:07;;;;;;;;;;;-2.40;87.60;;;;;;5064774;28;19932;-71
2022/03/08 02:41:33;;;;;;;;;;;-2.40;88.80;;;;;;5046777;28;20208;-71
2022/03/08 02:43:58;;;;;;;;;;;-2.60;89.70;;;;;;5064498;28;20158;-71
2022/03/08 02:46:24;;;;;;;;;;;-2.60;90.00;;;;;;5046632;28;19909;-71
2022/03/08 02:48:50;;;;;;;;;;;-2.50;90.40;;;;;;5064635;28;19915;-71
2022/03/08 02:51:17;;;;;;;;;;;-2.60;90.30;;;;;;5064235;28;19930;-72
2022/03/08 02:53:43;;;;;;;;;;;-2.60;90.50;;;;;;5046955;28;19959;-72
2022/03/08 02:56:09;;;;;;;;;;;-2.60;90.50;;;;;;5046766;28;20152;-70
2022/03/08 02:58:35;;;;;;;;;;;-2.60;90.50;;;;;;5046673;28;19909;-69
2022/03/08 03:01:00;;;;;;;;;;;-2.70;90.70;;;;;;5063751;28;19916;-69
2022/03/08 03:03:26;;;;;;;;;;;-2.60;90.60;;;;;;5046420;28;20171;-69
2022/03/08 03:05:52;;;;;;;;;;;-2.70;90.70;;;;;;5029931;28;19975;-70
2022/03/08 03:08:17;;;;;;;;;;;-2.70;90.70;;;;;;5046501;28;19962;-70
2022/03/08 03:10:43;;;;;;;;;;;-2.80;90.90;;;;;;5063855;28;19986;-70
2022/03/08 03:13:09;;;;;;;;;;;-2.80;90.80;;;;;;5046275;28;19992;-71
2022/03/08 03:15:34;;;;;;;;;;;-2.90;91.00;;;;;;5045035;28;19925;-71
2022/03/08 03:18:00;;;;;;;;;;;-2.90;91.20;;;;;;5029688;28;19909;-71
2022/03/08 03:20:27;;;;;;;;;;;-3.00;91.20;;;;;;5063964;28;20218;-72
2022/03/08 03:22:53;;;;;;;;;;;-2.80;90.90;;;;;;5063684;28;20164;-74
2022/03/08 03:25:19;;;;;;;;;;;-2.90;91.00;;;;;;5013226;28;19935;-76
2022/03/08 03:27:44;;;;;;;;;;;-2.90;91.00;;;;;;5045820;28;19908;-72
2022/03/08 03:30:12;;;;;;;;;;;-3.00;90.90;;;;;;5029732;28;19909;-72
2022/03/08 03:32:38;;;;;;;;;;;-3.00;90.90;;;;;;5041578;28;20223;-72
2022/03/08 03:35:05;;;;;;;;;;;-3.10;91.10;;;;;;5043353;28;19955;-72
2022/03/08 03:37:30;;;;;;;;;;;-3.10;90.90;;;;;;5042444;28;19913;-72
2022/03/08 03:39:56;;;;;;;;;;;-2.90;90.70;;;;;;5025997;28;20105;-72
2022/03/08 03:42:22;;;;;;;;;;;-3.00;90.50;;;;;;5042203;28;19967;-72
2022/03/08 03:44:47;;;;;;;;;;;-3.00;90.60;;;;;;5042529;28;19921;-72
2022/03/08 03:47:13;;;;;;;;;;;-3.00;90.70;;;;;;5027051;28;19909;-73
2022/03/08 03:49:39;;;;;;;;;;;-3.10;90.80;;;;;;5025913;28;19909;-72
2022/03/08 03:52:05;;;;;;;;;;;-3.20;90.90;;;;;;5025769;28;19909;-72
2022/03/08 03:54:31;;;;;;;;;;;-3.10;91.20;;;;;;5025834;28;19913;-72
2022/03/08 03:56:56;;;;;;;;;;;-3.10;91.10;;;;;;5025853;28;19992;-73
2022/03/08 03:59:22;;;;;;;;;;;-3.20;91.30;;;;;;5025857;28;19921;-73
2022/03/08 04:01:48;;;;;;;;;;;-3.10;91.30;;;;;;5025313;28;19984;-73
2022/03/08 04:04:13;;;;;;;;;;;-3.10;91.40;;;;;;5025598;28;19945;-72
2022/03/08 04:06:39;;;;;;;;;;;-3.20;91.60;;;;;;5043248;28;19931;-72
2022/03/08 04:09:05;;;;;;;;;;;-3.20;91.70;;;;;;5025703;28;19931;-72
2022/03/08 04:11:31;;;;;;;;;;;-3.10;91.60;;;;;;5008942;28;19909;-73
2022/03/08 04:13:56;;;;;;;;;;;-3.10;91.80;;;;;;5009136;28;19920;-73
2022/03/08 04:16:22;;;;;;;;;;;-3.20;91.90;;;;;;5041695;28;19987;-71
2022/03/08 04:18:48;;;;;;;;;;;-3.20;91.90;;;;;;5025705;28;20196;-72
2022/03/08 04:21:13;;;;;;;;;;;-3.30;92.00;;;;;;5025143;28;20228;-72
2022/03/08 04:23:39;;;;;;;;;;;-3.30;92.00;;;;;;5025344;28;19979;-73
2022/03/08 04:26:05;;;;;;;;;;;-3.30;92.20;;;;;;5025487;28;20271;-71
2022/03/08 04:28:31;;;;;;;;;;;-3.40;92.20;;;;;;5025531;28;19909;-71
2022/03/08 04:30:56;;;;;;;;;;;-3.40;92.30;;;;;;5024840;28;19940;-72
2022/03/08 04:33:22;;;;;;;;;;;-3.40;92.40;;;;;;5008759;28;20016;-71
2022/03/08 04:35:48;;;;;;;;;;;-3.50;92.40;;;;;;5008866;28;20104;-71
2022/03/08 04:38:14;;;;;;;;;;;-3.40;92.40;;;;;;5025202;28;19992;-71
2022/03/08 04:40:39;;;;;;;;;;;-3.50;92.50;;;;;;5007770;28;19915;-70
2022/03/08 04:43:05;;;;;;;;;;;-3.60;92.40;;;;;;5025178;28;19909;-69
2022/03/08 04:45:31;;;;;;;;;;;-3.60;92.50;;;;;;5024916;28;20108;-70
2022/03/08 04:47:56;;;;;;;;;;;-3.60;92.50;;;;;;5042389;28;19916;-72
2022/03/08 04:50:22;;;;;;;;;;;-3.50;92.30;;;;;;5025031;28;19917;-71
2022/03/08 04:52:48;;;;;;;;;;;-3.60;92.30;;;;;;5024934;28;19909;-71
2022/03/08 04:55:15;;;;;;;;;;;-3.60;92.20;;;;;;5008811;28;19909;-70
2022/03/08 04:57:41;;;;;;;;;;;-3.60;92.10;;;;;;5008645;28;19909;-71
2022/03/08 05:00:08;;;;;;;;;;;-3.70;92.10;;;;;;5042763;28;19970;-72
2022/03/08 05:02:33;;;;;;;;;;;-3.70;92.10;;;;;;5008411;28;20097;-72
2022/03/08 05:04:59;;;;;;;;;;;-3.70;91.90;;;;;;5024748;28;19909;-70
2022/03/08 05:07:25;;;;;;;;;;;-3.80;92.10;;;;;;5042518;28;19909;-71
2022/03/08 05:09:51;;;;;;;;;;;-3.80;92.20;;;;;;5042464;28;19944;-71
2022/03/08 05:12:16;;;;;;;;;;;-3.80;92.10;;;;;;5008515;28;19963;-71
2022/03/08 05:14:42;;;;;;;;;;;-3.80;92.10;;;;;;5025288;28;19921;-70
2022/03/08 05:17:08;;;;;;;;;;;-3.80;92.00;;;;;;5013762;28;19955;-70
2022/03/08 05:19:33;;;;;;;;;;;-3.70;91.90;;;;;;5030536;28;19909;-70
2022/03/08 05:21:59;;;;;;;;;;;-3.80;91.80;;;;;;5047543;28;19916;-70
2022/03/08 05:24:25;;;;;;;;;;;-3.80;91.80;;;;;;5045482;28;20245;-71
2022/03/08 05:26:51;;;;;;;;;;;-3.80;92.00;;;;;;5008960;28;19968;-70
2022/03/08 05:29:16;;;;;;;;;;;-3.80;92.10;;;;;;5024821;28;19910;-71
2022/03/08 05:31:42;;;;;;;;;;;-3.80;92.10;;;;;;5041917;28;20160;-70
2022/03/08 05:34:08;;;;;;;;;;;-3.80;92.10;;;;;;5024528;28;19971;-71
2022/03/08 05:36:34;;;;;;;;;;;-3.90;92.10;;;;;;5027985;28;19909;-70
2022/03/08 05:39:00;;;;;;;;;;;-3.90;92.30;;;;;;5033625;28;19913;-70
2022/03/08 05:41:26;;;;;;;;;;;-3.90;92.40;;;;;;5031005;28;20174;-70
2022/03/08 05:43:51;;;;;;;;;;;-3.90;92.40;;;;;;5045478;28;19909;-71
2022/03/08 05:46:17;;;;;;;;;;;-3.90;92.40;;;;;;5030001;28;19918;-70
2022/03/08 05:48:43;;;;;;;;;;;-4.00;92.40;;;;;;5025435;28;19915;-70
2022/03/08 05:51:09;;;;;;;;;;;-3.90;92.30;;;;;;5025836;28;19909;-71
2022/03/08 05:53:35;;;;;;;;;;;-3.90;92.40;;;;;;5025754;28;19994;-71
2022/03/08 05:56:00;;;;;;;;;;;-3.90;92.50;;;;;;5025886;28;19933;-71
2022/03/08 05:58:26;;;;;;;;;;;-4.00;92.80;;;;;;5025706;28;19948;-71
2022/03/08 06:00:52;;;;;;;;;;;-4.10;93.30;;;;;;5025471;28;20151;-71
2022/03/08 06:03:17;;;;;;;;;;;-4.00;93.40;;;;;;5007883;28;19993;-71
2022/03/08 06:05:43;;;;;;;;;;;-3.90;93.60;;;;;;5025750;28;19909;-71
2022/03/08 06:08:09;;;;;;;;;;;-4.00;93.60;;;;;;4991676;28;19917;-71
2022/03/08 06:10:35;;;;;;;;;;;-4.00;93.50;;;;;;5031156;28;19959;-71
2022/03/08 06:13:00;;;;;;;;;;;-3.90;93.70;;;;;;5045007;28;19913;-70
2022/03/08 06:15:26;;;;;;;;;;;-3.90;93.70;;;;;;5045071;28;19917;-71
2022/03/08 06:17:52;;;;;;;;;;;-3.90;93.80;;;;;;5044799;28;19915;-71
2022/03/08 06:20:17;;;;;;;;;;;-3.80;93.70;;;;;;5034101;28;19921;-71
2022/03/08 06:22:43;;;;;;;;;;;-3.70;93.60;;;;;;5039730;28;20107;-71
2022/03/08 06:25:09;;;;;;;;;;;-3.70;93.70;;;;;;5025746;28;19921;-71
2022/03/08 06:27:35;;;;;;;;;;;-3.60;93.50;;;;;;5038117;28;19909;-71
2022/03/08 06:30:01;;;;;;;;;;;-3.60;93.30;;;;;;5012460;28;20115;-71
2022/03/08 06:32:27;;;;;;;;;;;-3.60;93.40;;;;;;4995250;28;19913;-71
2022/03/08 06:34:52;;;;;;;;;;;-3.50;93.50;;;;;;5013040;28;19928;-71
2022/03/08 06:37:22;;;;;;;;;;;-3.40;93.40;;;;;;5047469;28;19909;-71
2022/03/08 06:39:48;;;;;;;;;;;-3.30;93.30;;;;;;5043690;28;19920;-71
2022/03/08 06:42:14;;;;;;;;;;;-3.20;93.20;;;;;;5044791;28;19909;-71
2022/03/08 06:44:40;;;;;;;;;;;-3.10;93.20;;;;;;5043657;28;20108;-71
2022/03/08 06:47:06;;;;;;;;;;;-3.20;93.10;;;;;;5030106;28;19909;-71
2022/03/08 06:49:33;;;;;;;;;;;-3.10;93.00;;;;;;5010742;28;20331;-71
2022/03/08 06:51:59;;;;;;;;;;;-3.10;92.90;;;;;;4994693;28;19927;-71
2022/03/08 06:54:24;;;;;;;;;;;-3.00;92.90;;;;;;5044255;28;19917;-72
2022/03/08 06:56:50;;;;;;;;;;;-2.80;92.70;;;;;;5021853;28;19909;-71
2022/03/08 06:59:16;;;;;;;;;;;-2.50;92.30;;;;;;5032647;28;19921;-70
2022/03/08 07:01:41;;;;;;;;;;;-2.40;92.00;;;;;;5042663;28;20140;-71
2022/03/08 07:04:07;;;;;;;;;;;-2.30;91.80;;;;;;5025837;28;19928;-71
2022/03/08 07:06:33;;;;;;;;;;;-2.30;91.50;;;;;;5026930;28;20223;-72
2022/03/08 07:08:58;;;;;;;;;;;-2.30;91.20;;;;;;5043992;28;19986;-71
2022/03/08 07:11:24;;;;;;;;;;;-2.40;91.50;;;;;;5026322;28;19923;-72
2022/03/08 07:13:50;;;;;;;;;;;-2.30;91.40;;;;;;5027094;28;19913;-71
2022/03/08 07:16:16;;;;;;;;;;;-2.20;91.50;;;;;;5034725;28;20319;-73
2022/03/08 07:18:42;;;;;;;;;;;-2.10;91.40;;;;;;5046256;28;20338;-72
2022/03/08 07:21:07;;;;;;;;;;;-2.00;91.20;;;;;;5029341;28;19924;-76
2022/03/08 07:23:33;;;;;;;;;;;-2.00;91.00;;;;;;5029669;28;20204;-73
2022/03/08 07:25:59;;;;;;;;;;;-1.90;91.00;;;;;;5046233;28;19908;-73
2022/03/08 07:28:25;;;;;;;;;;;-1.80;91.10;;;;;;5026544;28;20093;-74
2022/03/08 07:30:50;;;;;;;;;;;-1.70;91.10;;;;;;5043781;28;20250;-73
2022/03/08 07:33:17;;;;;;;;;;;-1.60;90.50;;;;;;5043447;28;19913;-73
2022/03/08 07:35:42;;;;;;;;;;;-1.50;90.50;;;;;;5025957;28;19921;-74
2022/03/08 07:38:08;;;;;;;;;;;-1.40;90.20;;;;;;5009284;28;19909;-74
2022/03/08 07:40:34;;;;;;;;;;;-1.20;89.50;;;;;;5025826;28;19909;-72
2022/03/08 07:43:02;;;;;;;;;;;-1.10;89.60;;;;;;5025713;28;20084;-74
2022/03/08 07:45:29;;;;;;;;;;;-1.10;89.20;;;;;;5045137;28;19990;-73
2022/03/08 07:47:54;;;;;;;;;;;-1.00;88.70;;;;;;5046180;28;19908;-73
2022/03/08 07:50:22;;;;;;;;;;;-1.00;88.70;;;;;;5063330;28;20112;-73
2022/03/08 07:52:48;;;;;;;;;;;-1.00;88.90;;;;;;5029179;28;19944;-73
2022/03/08 07:55:14;;;;;;;;;;;-0.90;89.00;;;;;;5045512;28;19909;-73
2022/03/08 07:57:39;;;;;;;;;;;-0.80;88.60;;;;;;5052578;28;19916;-73
2022/03/08 08:00:06;;;;;;;;;;;-0.70;88.50;;;;;;5043130;28;19909;-73
2022/03/08 08:02:32;;;;;;;;;;;-0.60;88.00;;;;;;5025326;28;19913;-73
2022/03/08 08:04:58;;;;;;;;;;;-0.50;87.60;;;;;;5042808;28;19924;-73
2022/03/08 08:07:24;;;;;;;;;;;-0.40;87.40;;;;;;5024992;28;20200;-73
2022/03/08 08:09:49;;;;;;;;;;;-0.30;87.20;;;;;;5042923;28;19946;-73
2022/03/08 08:12:15;;;;;;;;;;;-0.20;86.90;;;;;;5042496;28;20123;-73
2022/03/08 08:14:41;;;;;;;;;;;-0.10;86.80;;;;;;5008336;28;20382;-73
2022/03/08 08:17:07;;;;;;;;;;;0.00;86.30;;;;;;4988169;28;19909;-72
2022/03/08 08:19:32;;;;;;;;;;;0.10;86.50;;;;;;5022638;28;20165;-72
2022/03/08 08:21:58;;;;;;;;;;;0.20;86.00;;;;;;5022787;28;19948;-72
2022/03/08 08:24:24;;;;;;;;;;;0.30;86.00;;;;;;5022504;28;19913;-72
2022/03/08 08:26:49;;;;;;;;;;;0.40;85.50;;;;;;5023079;28;19910;-72
2022/03/08 08:29:15;;;;;;;;;;;0.60;84.70;;;;;;5024738;28;20018;-72
2022/03/08 08:31:41;;;;;;;;;;;0.60;84.40;;;;;;5042085;28;19909;-72
2022/03/08 08:34:07;;;;;;;;;;;0.80;84.30;;;;;;5024794;28;20115;-72
2022/03/08 08:36:32;;;;;;;;;;;0.90;84.40;;;;;;5042344;28;19917;-72
2022/03/08 08:38:58;;;;;;;;;;;1.00;84.10;;;;;;5042523;28;19975;-72
2022/03/08 08:41:24;;;;;;;;;;;1.00;83.40;;;;;;5024560;28;19909;-73
2022/03/08 08:43:49;;;;;;;;;;;1.20;82.70;;;;;;5024572;28;19952;-73
2022/03/08 08:46:15;;;;;;;;;;;1.40;81.80;;;;;;5049448;28;19912;-73
2022/03/08 08:48:41;;;;;;;;;;;1.70;80.80;;;;;;5062484;28;19925;-73
2022/03/08 08:51:06;;;;;;;;;;;1.90;80.70;;;;;;5061959;28;19909;-73
2022/03/08 08:53:32;;;;;;;;;;;2.00;79.50;;;;;;5062386;28;19921;-73
2022/03/08 08:55:58;;;;;;;;;;;2.10;79.60;;;;;;5027936;28;19923;-72
2022/03/08 08:58:24;;;;;;;;;;;2.20;79.40;;;;;;5048670;28;19955;-73
2022/03/08 09:00:49;;;;;;;;;;;2.30;78.30;;;;;;5041278;28;20228;-73
2022/03/08 09:03:16;;;;;;;;;;;2.30;78.30;;;;;;5042018;28;20108;-72
2022/03/08 09:05:43;;;;;;;;;;;2.50;79.80;;;;;;5041791;28;19937;-72
2022/03/08 09:08:09;;;;;;;;;;;2.80;77.90;;;;;;5007837;28;19909;-73
2022/03/08 09:10:35;;;;;;;;;;;3.00;75.70;;;;;;5042115;28;19972;-73
2022/03/08 09:13:01;;;;;;;;;;;3.00;76.00;;;;;;5041880;28;19916;-73
2022/03/08 09:15:27;;;;;;;;;;;3.00;76.40;;;;;;5041900;28;19909;-73
2022/03/08 09:17:52;;;;;;;;;;;3.20;77.00;;;;;;5061780;28;20115;-73
2022/03/08 09:20:18;;;;;;;;;;;3.30;75.80;;;;;;5027526;28;19980;-73
2022/03/08 09:22:44;;;;;;;;;;;3.40;73.40;;;;;;5061329;28;20194;-76
2022/03/08 09:25:09;;;;;;;;;;;3.60;65.30;;;;;;5043040;28;19913;-70
2022/03/08 09:27:35;;;;;;;;;;;3.80;60.70;;;;;;5058411;28;19988;-69
2022/03/08 09:30:05;;;;;;;;;;;4.00;62.50;;;;;;5045990;28;19909;-69
2022/03/08 09:32:31;;;;;;;;;;;4.20;57.60;;;;;;5044968;28;19909;-69
2022/03/08 09:34:57;;;;;;;;;;;4.30;58.00;;;;;;5027746;28;19944;-69
2022/03/08 09:37:22;;;;;;;;;;;4.50;56.90;;;;;;5045150;28;19924;-70
2022/03/08 09:39:48;;;;;;;;;;;4.60;54.80;;;;;;5045201;28;19916;-69
2022/03/08 09:42:14;;;;;;;;;;;4.80;53.70;;;;;;5045003;28;20089;-69
2022/03/08 09:44:39;;;;;;;;;;;4.90;53.70;;;;;;5011505;28;19920;-69
2022/03/08 09:47:05;;;;;;;;;;;5.10;50.50;;;;;;5059117;28;19971;-69
2022/03/08 09:49:32;;;;;;;;;;;5.10;51.50;;;;;;5065479;28;20007;-69
2022/03/08 09:51:57;;;;;;;;;;;5.20;50.30;;;;;;5065331;28;20123;-69
2022/03/08 09:54:23;;;;;;;;;;;5.20;49.60;;;;;;5047453;28;19912;-69
2022/03/08 09:56:49;;;;;;;;;;;5.30;49.60;;;;;;5047369;28;19936;-69
2022/03/08 09:59:18;;;;;;;;;;;5.30;50.50;;;;;;5012144;28;19924;-69
2022/03/08 10:01:44;;;;;;;;;;;5.40;48.30;;;;;;5027944;28;20157;-69
2022/03/08 10:04:17;;;;;;;;;;;5.50;48.60;;;;;;5045426;28;19909;-70
2022/03/08 10:06:46;;;;;;;;;;;5.60;48.60;;;;;;5027716;28;19917;-69
2022/03/08 10:09:13;;;;;;;;;;;5.70;48.00;;;;;;5044884;28;19916;-70
2022/03/08 10:11:39;;;;;;;;;;;5.70;47.40;;;;;;5026967;28;19978;-68
2022/03/08 10:14:05;;;;;;;;;;;5.90;48.40;;;;;;5044987;28;19913;-69
2022/03/08 10:16:42;;;;;;;;;;;6.10;46.20;;;;;;5034703;28;19908;-68
2022/03/08 10:19:09;;;;;;;;;;;6.10;45.20;;;;;;5064953;28;20116;-68
2022/03/08 10:21:39;;;;;;;;;;;6.10;44.60;;;;;;5046912;28;19940;-68
2022/03/08 10:24:26;;;;;;;;;;;6.10;45.80;;;;;;5047635;28;19912;-68
2022/03/08 10:26:56;;;;;;;;;;;6.30;46.00;;;;;;5049724;28;19921;-67
2022/03/08 10:29:28;;;;;;;;;;;6.50;45.10;;;;;;5028092;28;19913;-67
2022/03/08 10:32:09;;;;;;;;;;;6.50;43.90;;;;;;5044363;28;19909;-67
2022/03/08 10:34:36;;;;;;;;;;;6.60;43.90;;;;;;5026747;28;20204;-70
2022/03/08 10:37:17;;;;;;;;;;;6.60;44.30;;;;;;5026409;28;19909;-68
2022/03/08 10:39:50;;;;;;;;;;;6.70;44.70;;;;;;5044932;28;19923;-68
2022/03/08 10:42:26;;;;;;;;;;;7.00;44.20;;;;;;5026884;28;19937;-68
2022/03/08 10:44:59;;;;;;;;;;;7.10;43.60;;;;;;5044577;28;20148;-68
2022/03/08 10:47:25;;;;;;;;;;;7.30;42.70;;;;;;5059929;28;19909;-68
2022/03/08 10:49:55;;;;;;;;;;;7.30;42.50;;;;;;5064374;28;19908;-68
2022/03/08 10:52:34;;;;;;;;;;;7.50;42.50;;;;;;5027975;28;19917;-68
2022/03/08 10:55:17;;;;;;;;;;;7.60;42.90;;;;;;5026326;28;19917;-68
2022/03/08 10:57:50;;;;;;;;;;;7.80;41.10;;;;;;5025386;28;19928;-67
2022/03/08 11:00:20;;;;;;;;;;;7.60;40.50;;;;;;5010319;28;19924;-68
2022/03/08 11:02:51;;;;;;;;;;;7.80;41.40;;;;;;5025566;28;19910;-67
2022/03/08 11:05:17;;;;;;;;;;;8.00;41.30;;;;;;5043612;28;19913;-67
2022/03/08 11:07:43;;;;;;;;;;;8.00;40.80;;;;;;5059453;28;19917;-68
2022/03/08 11:10:09;;;;;;;;;;;8.20;40.80;;;;;;5043515;28;20184;-67
2022/03/08 11:12:36;;;;;;;;;;;8.30;40.80;;;;;;5043248;28;19988;-67
2022/03/08 11:15:02;;;;;;;;;;;8.70;40.00;;;;;;5043542;28;19984;-68
2022/03/08 11:17:28;;;;;;;;;;;8.80;38.90;;;;;;5040865;28;19999;-68
2022/03/08 11:19:54;;;;;;;;;;;8.90;39.40;;;;;;5050631;28;20208;-68
2022/03/08 11:22:20;;;;;;;;;;;9.30;38.50;;;;;;5050296;28;20207;-67
2022/03/08 11:24:46;;;;;;;;;;;9.70;37.40;;;;;;5025592;28;19913;-68
2022/03/08 11:27:13;;;;;;;;;;;10.00;37.70;;;;;;5043717;28;19981;-68
2022/03/08 11:29:38;;;;;;;;;;;10.50;37.40;;;;;;5008842;28;19916;-69
2022/03/08 11:32:04;;;;;;;;;;;11.00;36.20;;;;;;5025745;28;19909;-69
2022/03/08 11:34:35;;;;;;;;;;;11.90;34.00;;;;;;5043412;28;19913;-69
2022/03/08 11:37:11;;;;;;;;;;;12.50;33.10;;;;;;5025981;28;19909;-69
2022/03/08 11:39:40;;;;;;;;;;;14.80;31.40;;;;;;5026450;28;19924;-67
2022/03/08 11:42:18;;;;;;;;;;;16.80;28.60;;;;;;5045504;28;19955;-67
2022/03/08 11:44:57;;;;;;;;;;;18.30;28.00;;;;;;5063278;28;19998;-67
2022/03/08 11:47:23;;;;;;;;;;;20.20;24.70;;;;;;5062966;28;19920;-67
2022/03/08 11:49:53;;;;;;;;;;;20.70;23.40;;;;;;5046841;28;19910;-70
2022/03/08 11:52:24;;;;;;;;;;;20.20;23.30;;;;;;5016397;28;19909;-70
2022/03/08 11:54:58;;;;;;;;;;;20.20;23.00;;;;;;5009210;28;20330;-70
2022/03/08 11:57:47;;;;;;;;;;;20.60;22.80;;;;;;5025042;28;20131;-68
2022/03/08 12:00:20;;;;;;;;;;;21.20;22.60;;;;;;5034473;28;19924;-69
2022/03/08 12:02:47;;;;;;;;;;;21.40;22.20;;;;;;5025061;28;20204;-69
2022/03/08 12:05:38;;;;;;;;;;;21.70;22.10;;;;;;5042753;28;19916;-69
2022/03/08 12:08:22;;;;;;;;;;;22.30;21.90;;;;;;5039472;28;20204;-69
2022/03/08 12:10:48;;;;;;;;;;;22.10;21.50;;;;;;5041257;28;19980;-69
2022/03/08 12:13:14;;;;;;;;;;;22.40;21.30;;;;;;5026732;28;19917;-69
2022/03/08 12:16:08;;;;;;;;;;;22.40;21.10;;;;;;5041987;28;19959;-69
2022/03/08 12:18:34;;;;;;;;;;;22.90;21.30;;;;;;5022675;28;19910;-69
2022/03/08 12:21:15;;;;;;;;;;;23.40;20.80;;;;;;5023202;28;19909;-69
2022/03/08 12:24:14;;;;;;;;;;;24.00;20.40;;;;;;5042225;28;19913;-70
2022/03/08 12:26:48;;;;;;;;;;;24.70;20.30;;;;;;5039510;28;19909;-71
2022/03/08 12:29:19;;;;;;;;;;;26.90;19.90;;;;;;5042209;28;19920;-70
2022/03/08 12:32:05;;;;;;;;;;;27.20;19.00;;;;;;5042007;28;19988;-70
2022/03/08 12:34:38;;;;;;;;;;;26.00;19.30;;;;;;5042048;28;19935;-70
2022/03/08 12:37:04;;;;;;;;;;;26.30;18.90;;;;;;5058062;28;19916;-70
2022/03/08 12:39:53;;;;;;;;;;;24.90;19.20;;;;;;5042530;28;19909;-70
2022/03/08 12:42:24;;;;;;;;;;;24.40;19.80;;;;;;5042042;28;19924;-70
2022/03/08 12:44:56;;;;;;;;;;;24.80;19.80;;;;;;5059535;28;20160;-70
2022/03/08 12:47:22;;;;;;;;;;;24.90;19.90;;;;;;5060106;28;19983;-70
2022/03/08 12:49:48;;;;;;;;;;;25.40;19.30;;;;;;5023643;28;19924;-70
2022/03/08 12:52:14;;;;;;;;;;;26.20;19.00;;;;;;5041538;28;19935;-70
2022/03/08 12:54:41;;;;;;;;;;;26.70;18.70;;;;;;5042164;28;19949;-70
2022/03/08 12:57:09;;;;;;;;;;;26.90;19.20;;;;;;5044845;28;19979;-70
2022/03/08 12:59:45;;;;;;;;;;;27.50;19.10;;;;;;5024842;28;19916;-71
2022/03/08 13:02:11;;;;;;;;;;;28.50;18.70;;;;;;5041059;28;20196;-70
2022/03/08 13:04:37;;;;;;;;;;;28.70;17.90;;;;;;5042297;28;19916;-70
2022/03/08 13:07:10;;;;;;;;;;;27.80;18.30;;;;;;5042253;28;20147;-70
2022/03/08 13:09:56;;;;;;;;;;;27.40;18.70;;;;;;5023300;28;19928;-71
2022/03/08 13:12:28;;;;;;;;;;;27.60;18.30;;;;;;5022380;28;19909;-70
2022/03/08 13:15:11;;;;;;;;;;;28.50;18.20;;;;;;5039333;28;19917;-70
2022/03/08 13:17:37;;;;;;;;;;;28.40;18.30;;;;;;5024463;28;19909;-70
2022/03/08 13:20:04;;;;;;;;;;;27.20;18.50;;;;;;5023839;28;19979;-70
2022/03/08 13:22:30;;;;;;;;;;;26.70;18.40;;;;;;5008037;28;19916;-70
2022/03/08 13:25:07;;;;;;;;;;;27.10;18.80;;;;;;5024448;28;19980;-70
2022/03/08 13:27:52;;;;;;;;;;;28.70;18.40;;;;;;5042414;28;20235;-70
2022/03/08 13:30:19;;;;;;;;;;;29.30;17.90;;;;;;5042280;28;19925;-71
2022/03/08 13:32:45;;;;;;;;;;;29.50;18.00;;;;;;5008171;28;19909;-70
2022/03/08 13:35:11;;;;;;;;;;;30.60;17.90;;;;;;5041682;28;19913;-70
2022/03/08 13:37:46;;;;;;;;;;;31.40;17.60;;;;;;5042001;28;19915;-70
2022/03/08 13:40:28;;;;;;;;;;;31.20;17.50;;;;;;5042069;28;19954;-71
2022/03/08 13:42:57;;;;;;;;;;;30.20;17.70;;;;;;5025344;28;20143;-71
2022/03/08 13:45:24;;;;;;;;;;;30.00;17.70;;;;;;5043319;28;19913;-71
2022/03/08 13:47:52;;;;;;;;;;;30.50;18.00;;;;;;5032258;28;19909;-71
2022/03/08 13:50:23;;;;;;;;;;;30.20;18.00;;;;;;5005504;28;19921;-71
2022/03/08 13:52:52;;;;;;;;;;;29.80;17.90;;;;;;5041599;28;19940;-71
2022/03/08 13:55:18;;;;;;;;;;;31.80;17.80;;;;;;5031328;28;19934;-77
2022/03/08 13:57:54;;;;;;;;;;;31.60;17.70;;;;;;5041299;28;20117;-73
2022/03/08 14:00:19;;;;;;;;;;;31.30;17.50;;;;;;5031663;28;19980;-74
2022/03/08 14:02:45;;;;;;;;;;;29.80;17.80;;;;;;5040001;28;19909;-74
2022/03/08 14:05:11;;;;;;;;;;;29.80;18.20;;;;;;5041416;28;20212;-77
2022/03/08 14:07:37;;;;;;;;;;;31.20;18.00;;;;;;5023825;28;19944;-75
2022/03/08 14:10:03;;;;;;;;;;;30.00;17.80;;;;;;5024380;28;19917;-72
2022/03/08 14:12:42;;;;;;;;;;;29.10;18.30;;;;;;5042852;28;20162;-75
2022/03/08 14:15:08;;;;;;;;;;;28.60;18.40;;;;;;5008453;28;20204;-72
2022/03/08 14:17:34;;;;;;;;;;;28.00;18.80;;;;;;5034489;28;19916;-71
2022/03/08 14:20:12;;;;;;;;;;;27.80;18.90;;;;;;5026800;28;19912;-72